Time;durP1;ratioP1;P1;durP2;ratioP2;P2;SDS_P1;SDS_P2;PMS_P1;PMS_P2;Temp;Humidity;BMP_temperature;BMP_pressure;BME280_temperature;BME280_humidity;BME280_pressure;Samples;Min_cycle;Max_cycle;Signal;HPM_P1;HPM_P2
2022/04/26 03:38:16;;;;;;;14.90;11.00;;;10.80;98.20;;;;;;5094859;28;20222;-64
2022/04/26 03:40:43;;;;;;;11.90;10.15;;;10.80;98.40;;;;;;5094101;28;20224;-64
2022/04/26 03:43:10;;;;;;;15.00;10.98;;;10.70;98.30;;;;;;5094851;28;20219;-64
2022/04/26 03:45:37;;;;;;;15.90;11.32;;;10.70;98.30;;;;;;5093811;28;20219;-64
2022/04/26 03:48:04;;;;;;;12.68;11.38;;;10.70;98.40;;;;;;5094680;28;20562;-63
2022/04/26 03:50:32;;;;;;;13.30;11.45;;;10.70;98.30;;;;;;5094040;28;20688;-63
2022/04/26 03:52:59;;;;;;;15.48;10.50;;;10.60;98.30;;;;;;5090418;28;20230;-63
2022/04/26 03:55:26;;;;;;;12.45;11.00;;;10.60;98.30;;;;;;5094008;28;20301;-64
2022/04/26 03:57:53;;;;;;;11.38;10.10;;;10.50;98.30;;;;;;5094494;28;20219;-63
2022/04/26 04:00:20;;;;;;;11.35;10.05;;;10.50;98.50;;;;;;5093968;28;20247;-63
2022/04/26 04:02:47;;;;;;;15.45;10.98;;;10.50;98.50;;;;;;5093856;28;20231;-63
2022/04/26 04:05:14;;;;;;;16.52;11.32;;;10.50;98.50;;;;;;5093609;28;20253;-64
2022/04/26 04:07:42;;;;;;;13.60;11.30;;;10.50;98.60;;;;;;5093634;28;20223;-63
2022/04/26 04:10:09;;;;;;;13.15;10.60;;;10.50;98.50;;;;;;5080637;28;20230;-64
2022/04/26 04:12:36;;;;;;;13.85;11.60;;;10.60;98.60;;;;;;5093566;28;20224;-65
2022/04/26 04:15:03;;;;;;;13.90;11.43;;;10.60;98.50;;;;;;5091988;28;20219;-64
2022/04/26 04:17:30;;;;;;;12.95;11.05;;;10.60;98.20;;;;;;5093437;28;20231;-64
2022/04/26 04:19:57;;;;;;;13.88;10.82;;;10.60;98.10;;;;;;5080595;28;20220;-64
2022/04/26 04:22:23;;;;;;;12.48;9.98;;;10.70;98.10;;;;;;5093663;28;20241;-64
2022/04/26 04:24:51;;;;;;;16.88;12.32;;;10.70;98.10;;;;;;5093534;28;20230;-64
2022/04/26 04:27:18;;;;;;;13.30;11.57;;;10.70;97.90;;;;;;5093733;28;20554;-64
2022/04/26 04:29:45;;;;;;;14.07;11.93;;;10.70;97.80;;;;;;5093354;28;20273;-63
2022/04/26 04:32:12;;;;;;;15.50;11.05;;;10.70;97.70;;;;;;5093496;28;20224;-63
2022/04/26 04:34:42;;;;;;;14.77;11.68;;;10.80;97.80;;;;;;5084351;28;20223;-64
2022/04/26 04:37:09;;;;;;;12.73;9.80;;;10.80;97.50;;;;;;5093502;28;20223;-64
2022/04/26 04:39:37;;;;;;;13.82;11.38;;;10.80;97.50;;;;;;5093347;28;20237;-64
2022/04/26 04:42:06;;;;;;;14.52;11.88;;;10.80;97.40;;;;;;5093416;28;20223;-64
2022/04/26 04:44:33;;;;;;;14.27;11.32;;;10.80;97.30;;;;;;5092851;28;20231;-64
2022/04/26 04:47:00;;;;;;;12.27;10.70;;;10.90;97.30;;;;;;5093134;28;20239;-64
2022/04/26 04:49:27;;;;;;;14.00;11.45;;;10.90;97.20;;;;;;5093127;28;20262;-64
2022/04/26 04:51:53;;;;;;;16.98;11.38;;;11.00;97.10;;;;;;5092998;28;20561;-64
2022/04/26 04:54:20;;;;;;;13.18;10.85;;;11.00;97.10;;;;;;5093299;28;20226;-65
2022/04/26 04:56:47;;;;;;;11.73;10.40;;;11.00;96.80;;;;;;5092903;28;20577;-65
2022/04/26 04:59:16;;;;;;;14.85;11.65;;;11.10;96.80;;;;;;5093077;28;20227;-64
2022/04/26 05:01:43;;;;;;;13.85;10.98;;;11.10;96.60;;;;;;5092762;28;20227;-65
2022/04/26 05:04:10;;;;;;;13.02;11.30;;;11.20;96.50;;;;;;5093051;28;20681;-65
2022/04/26 05:06:37;;;;;;;11.80;9.57;;;11.20;96.40;;;;;;5092846;28;20244;-64
2022/04/26 05:09:03;;;;;;;11.25;9.80;;;11.20;96.20;;;;;;5092906;28;20219;-65
2022/04/26 05:11:30;;;;;;;11.13;9.90;;;11.30;96.10;;;;;;5092667;28;20231;-65
2022/04/26 05:13:57;;;;;;;12.48;10.65;;;11.30;95.90;;;;;;5092945;28;20313;-64
2022/04/26 05:16:25;;;;;;;14.02;10.27;;;11.30;95.90;;;;;;5092023;28;20224;-64
2022/04/26 05:18:52;;;;;;;11.23;9.48;;;11.40;95.80;;;;;;5092332;28;20223;-64
2022/04/26 05:21:19;;;;;;;11.20;9.70;;;11.50;95.70;;;;;;5092959;28;20731;-63
2022/04/26 05:26:30;;;;;;;12.10;10.88;;;11.50;95.10;;;;;;5092191;28;20230;-65
2022/04/26 05:28:57;;;;;;;11.48;10.27;;;11.50;94.90;;;;;;5091670;28;20211;-64
2022/04/26 05:31:25;;;;;;;13.10;8.45;;;11.60;94.90;;;;;;5091884;28;20596;-64
2022/04/26 05:33:52;;;;;;;9.10;8.15;;;11.70;94.80;;;;;;5086877;28;20216;-64
2022/04/26 05:36:19;;;;;;;11.10;8.98;;;11.80;94.60;;;;;;5092103;28;20223;-64
2022/04/26 05:38:45;;;;;;;9.45;8.52;;;11.80;94.30;;;;;;5091535;28;20224;-64
2022/04/26 05:41:13;;;;;;;12.48;8.85;;;11.90;94.20;;;;;;5091770;28;20280;-63
2022/04/26 05:43:40;;;;;;;11.15;8.38;;;11.90;93.90;;;;;;5090997;28;20219;-64
2022/04/26 05:46:11;;;;;;;16.35;10.05;;;12.00;93.60;;;;;;5091832;28;20239;-64
2022/04/26 05:48:40;;;;;;;11.98;7.78;;;12.00;93.40;;;;;;5091671;28;20222;-64
2022/04/26 05:51:07;;;;;;;8.48;7.57;;;12.10;93.30;;;;;;5091655;28;20254;-64
2022/04/26 05:53:35;;;;;;;15.15;9.65;;;12.10;93.30;;;;;;5091736;28;20677;-64
2022/04/26 05:56:03;;;;;;;11.13;8.32;;;12.20;92.70;;;;;;5092151;28;20211;-64
2022/04/26 05:58:30;;;;;;;17.40;8.68;;;12.20;92.60;;;;;;5092794;28;20577;-64
2022/04/26 06:00:57;;;;;;;7.53;6.70;;;12.30;92.60;;;;;;5092236;28;20227;-64
2022/04/26 06:03:24;;;;;;;11.07;7.53;;;12.30;92.40;;;;;;5092484;28;20239;-64
2022/04/26 06:05:55;;;;;;;8.52;7.63;;;12.30;91.60;;;;;;5092336;28;20234;-64
2022/04/26 06:08:22;;;;;;;9.52;7.93;;;12.40;91.80;;;;;;5092338;28;20298;-64
2022/04/26 06:10:49;;;;;;;10.60;8.18;;;12.50;91.60;;;;;;5091948;28;20234;-64
2022/04/26 06:13:16;;;;;;;9.55;7.43;;;12.50;91.40;;;;;;5092400;28;20646;-63
2022/04/26 06:15:43;;;;;;;8.60;7.05;;;12.60;91.30;;;;;;5092008;28;20222;-64
2022/04/26 06:18:09;;;;;;;10.40;8.38;;;12.60;91.10;;;;;;5092545;28;20220;-62
2022/04/26 06:20:37;;;;;;;9.82;7.03;;;12.70;91.10;;;;;;5092511;28;20230;-63
2022/04/26 06:23:05;;;;;;;10.63;7.50;;;12.70;90.90;;;;;;5091897;28;20332;-64
2022/04/26 06:25:36;;;;;;;11.43;8.25;;;12.80;90.30;;;;;;5092296;28;20242;-64
2022/04/26 06:28:03;;;;;;;7.47;6.55;;;12.90;90.20;;;;;;5093750;28;20219;-64
2022/04/26 06:30:30;;;;;;;7.47;6.10;;;12.90;90.20;;;;;;5096143;28;20228;-64
2022/04/26 06:32:57;;;;;;;9.55;5.97;;;13.00;89.20;;;;;;5092986;28;20681;-64
2022/04/26 06:35:23;;;;;;;7.88;5.85;;;13.00;86.20;;;;;;5081281;28;20228;-64
2022/04/26 06:37:50;;;;;;;11.13;5.18;;;13.10;83.90;;;;;;5095630;28;20226;-64
2022/04/26 06:40:18;;;;;;;6.22;5.30;;;13.10;82.70;;;;;;5095767;28;20230;-64
2022/04/26 06:42:45;;;;;;;6.30;5.28;;;13.20;83.00;;;;;;5085963;28;20231;-64
2022/04/26 06:45:12;;;;;;;6.00;4.97;;;13.30;81.50;;;;;;5081804;28;20227;-64
2022/04/26 06:47:39;;;;;;;9.05;5.80;;;13.30;79.90;;;;;;5095660;28;20227;-64
2022/04/26 06:50:07;;;;;;;11.48;5.35;;;13.40;79.60;;;;;;5095582;28;20702;-64
2022/04/26 06:52:34;;;;;;;7.22;4.72;;;13.50;80.20;;;;;;5095818;28;20227;-64
2022/04/26 06:55:00;;;;;;;9.68;4.32;;;13.60;78.80;;;;;;5095311;28;20223;-65
2022/04/26 06:57:29;;;;;;;6.72;4.07;;;13.70;77.80;;;;;;5095704;28;20234;-64
2022/04/26 06:59:55;;;;;;;8.93;3.80;;;13.80;78.20;;;;;;5094971;28;20241;-64
2022/04/26 07:02:22;;;;;;;5.00;3.90;;;13.80;75.60;;;;;;5095577;28;20227;-64
2022/04/26 07:04:49;;;;;;;4.68;3.65;;;13.90;75.70;;;;;;5094973;28;20229;-63
2022/04/26 07:07:16;;;;;;;5.10;3.53;;;14.00;74.30;;;;;;5095614;28;20219;-63
2022/04/26 07:09:42;;;;;;;3.63;3.33;;;14.10;74.60;;;;;;5095126;28;20226;-63
2022/04/26 07:12:09;;;;;;;2.55;2.35;;;14.00;69.10;;;;;;5095198;28;20240;-62
2022/04/26 07:14:37;;;;;;;2.80;2.60;;;13.90;68.00;;;;;;5095459;28;20579;-63
2022/04/26 07:17:17;;;;;;;3.50;3.15;;;14.10;68.80;;;;;;5094903;28;20219;-63
2022/04/26 07:19:43;;;;;;;3.33;3.03;;;14.10;67.30;;;;;;5095105;28;20215;-63
2022/04/26 07:22:10;;;;;;;3.50;3.20;;;14.30;67.80;;;;;;5095089;28;20238;-63
2022/04/26 07:24:37;;;;;;;3.97;2.90;;;14.40;66.50;;;;;;5095052;28;20230;-63
2022/04/26 07:27:04;;;;;;;4.55;2.83;;;14.50;65.70;;;;;;5094964;28;20227;-63
2022/04/26 07:29:31;;;;;;;5.50;3.40;;;14.50;65.50;;;;;;5095149;28;20227;-63
2022/04/26 07:31:59;;;;;;;2.90;2.70;;;14.50;65.80;;;;;;5094486;28;20565;-63
2022/04/26 07:34:25;;;;;;;4.32;3.88;;;14.60;66.30;;;;;;5094947;28;20235;-63
2022/04/26 07:36:54;;;;;;;4.33;2.97;;;14.70;66.00;;;;;;5094326;28;20223;-63
2022/04/26 07:39:21;;;;;;;5.70;3.13;;;14.80;66.10;;;;;;5093989;28;20457;-64
2022/04/26 07:41:49;;;;;;;4.30;3.73;;;14.90;65.40;;;;;;5094424;28;20492;-63
2022/04/26 07:44:17;;;;;;;5.00;2.80;;;15.00;64.80;;;;;;5094595;28;20461;-63
2022/04/26 07:46:45;;;;;;;3.63;2.80;;;15.10;65.20;;;;;;5094637;28;20466;-64
2022/04/26 07:49:14;;;;;;;5.43;4.43;;;15.20;64.70;;;;;;5094661;28;20770;-63
2022/04/26 07:51:42;;;;;;;5.07;4.53;;;15.20;62.90;;;;;;5094510;28;20468;-63
2022/04/26 07:54:09;;;;;;;6.00;3.93;;;15.30;62.60;;;;;;5094352;28;20492;-63
2022/04/26 07:56:36;;;;;;;3.23;2.40;;;15.30;62.80;;;;;;5094512;28;20461;-63
2022/04/26 07:59:03;;;;;;;3.10;2.90;;;15.40;61.60;;;;;;5093808;28;20476;-63
2022/04/26 08:01:31;;;;;;;3.13;2.47;;;15.40;59.90;;;;;;5094542;28;20473;-63
2022/04/26 08:03:58;;;;;;;2.50;2.27;;;15.40;58.50;;;;;;5093779;28;20485;-63
2022/04/26 08:06:26;;;;;;;3.33;2.60;;;15.40;56.00;;;;;;5094431;28;20465;-63
2022/04/26 08:08:54;;;;;;;3.03;2.37;;;15.50;56.40;;;;;;5094092;28;20468;-64
2022/04/26 08:11:21;;;;;;;2.90;2.27;;;15.60;56.50;;;;;;5093882;28;20461;-64
2022/04/26 08:13:48;;;;;;;3.63;2.93;;;15.60;55.80;;;;;;5094138;28;20462;-64
2022/04/26 08:16:15;;;;;;;5.70;3.90;;;15.70;56.10;;;;;;5093740;28;20453;-64
2022/04/26 08:18:42;;;;;;;2.30;2.10;;;15.80;56.50;;;;;;5094125;28;20476;-62
2022/04/26 08:21:09;;;;;;;3.70;2.30;;;15.70;56.80;;;;;;5093609;28;20472;-62
2022/04/26 08:27:22;;;;;;;2.37;1.87;;;15.80;57.10;;;;;;5093963;28;20476;-63
2022/04/26 08:29:12;;;;;;;3.20;2.90;;;15.90;56.90;;;;;;5094416;28;21044;-65
2022/04/26 08:31:39;;;;;;;3.53;2.67;;;16.00;57.40;;;;;;5093266;28;20455;-63
2022/04/26 08:34:06;;;;;;;3.63;2.63;;;16.10;57.30;;;;;;5093820;28;20454;-62
2022/04/26 08:36:34;;;;;;;3.00;2.70;;;16.10;56.50;;;;;;5093378;28;20457;-65
2022/04/26 08:39:02;;;;;;;2.60;2.40;;;16.10;55.20;;;;;;5093807;28;20461;-65
2022/04/26 08:41:29;;;;;;;2.53;2.33;;;16.20;55.50;;;;;;5093157;28;20470;-64
2022/04/26 08:43:56;;;;;;;3.50;3.20;;;16.30;55.50;;;;;;5093912;28;20469;-65
2022/04/26 08:50:59;;;;;;;2.40;2.20;;;16.30;54.30;;;;;;5093030;28;20812;-64
2022/04/26 08:52:00;;;;;;;3.77;2.07;;;16.40;55.40;;;;;;5093965;28;20471;-65
2022/04/26 08:54:30;;;;;;;2.53;2.37;;;16.40;53.80;;;;;;5093303;28;20460;-64
2022/04/26 08:56:57;;;;;;;2.43;2.23;;;16.50;53.90;;;;;;5093498;28;20458;-64
2022/04/26 08:59:24;;;;;;;2.73;2.10;;;16.50;53.70;;;;;;5092862;28;20461;-63
2022/04/26 09:01:54;;;;;;;2.07;1.97;;;16.50;53.10;;;;;;5093142;28;20462;-64
2022/04/26 09:04:21;;;;;;;2.37;2.17;;;16.50;53.40;;;;;;5093074;28;20465;-64
2022/04/26 09:06:48;;;;;;;4.63;2.67;;;16.50;53.50;;;;;;5093075;28;21003;-64
2022/04/26 09:09:17;;;;;;;2.97;2.20;;;16.60;53.60;;;;;;5092831;28;20483;-64
2022/04/26 09:11:46;;;;;;;2.90;2.60;;;16.60;53.80;;;;;;5093312;28;20901;-64
2022/04/26 09:14:29;;;;;;;3.00;2.60;;;16.60;53.80;;;;;;5092547;28;20463;-64
2022/04/26 09:17:04;;;;;;;2.33;2.13;;;16.60;53.40;;;;;;5093021;28;20484;-64
2022/04/26 09:19:44;;;;;;;3.03;2.20;;;16.60;53.30;;;;;;5093100;28;20474;-64
2022/04/26 09:22:17;;;;;;;3.80;3.30;;;16.70;53.80;;;;;;5092707;28;20532;-63
2022/04/26 09:24:55;;;;;;;3.40;2.77;;;16.80;54.40;;;;;;5093218;28;20474;-63
2022/04/26 09:27:23;;;;;;;2.03;1.83;;;16.80;54.60;;;;;;5092690;28;20474;-64
2022/04/26 09:29:50;;;;;;;2.53;2.10;;;16.90;54.40;;;;;;5092932;28;20462;-65
2022/04/26 09:32:18;;;;;;;3.30;3.00;;;16.90;54.40;;;;;;5092548;28;20468;-64
2022/04/26 09:34:44;;;;;;;3.00;2.57;;;17.10;54.20;;;;;;5092848;28;20455;-64
2022/04/26 09:37:11;;;;;;;8.43;3.03;;;17.00;54.10;;;;;;5092459;28;20466;-64
2022/04/26 09:39:39;;;;;;;3.53;2.80;;;17.00;54.00;;;;;;5093043;28;20466;-64
2022/04/26 09:42:07;;;;;;;3.10;2.80;;;17.00;54.30;;;;;;5092664;28;20484;-63
2022/04/26 09:44:38;;;;;;;5.10;3.10;;;17.00;54.30;;;;;;5092352;28;20520;-63
2022/04/26 09:47:05;;;;;;;3.17;2.97;;;16.90;54.20;;;;;;5092866;28;20965;-63
2022/04/26 09:49:37;;;;;;;2.50;2.17;;;16.90;54.60;;;;;;5092248;28;20951;-64
2022/04/26 09:52:06;;;;;;;4.70;4.30;;;17.00;54.70;;;;;;5092637;28;20987;-63
2022/04/26 09:54:35;;;;;;;3.73;3.43;;;17.00;55.40;;;;;;5092358;28;20462;-63
2022/04/26 09:57:05;;;;;;;3.27;3.07;;;17.10;55.70;;;;;;5092821;28;20997;-63
2022/04/26 09:59:43;;;;;;;3.67;3.27;;;17.10;55.10;;;;;;5092205;28;20473;-63
2022/04/26 10:02:15;;;;;;;4.23;3.83;;;17.10;55.40;;;;;;5092857;28;20486;-64
2022/04/26 10:04:47;;;;;;;3.53;3.33;;;17.20;55.30;;;;;;5096396;28;21217;-65
2022/04/26 10:07:15;;;;;;;3.07;2.87;;;17.20;55.90;;;;;;5096900;28;20468;-65
2022/04/26 10:09:46;;;;;;;3.30;3.10;;;17.20;55.50;;;;;;5096328;28;20455;-65
2022/04/26 10:12:15;;;;;;;3.37;2.93;;;17.20;55.60;;;;;;5096371;28;20468;-64
2022/04/26 10:14:44;;;;;;;3.70;2.93;;;17.30;55.90;;;;;;5096250;28;20570;-64
2022/04/26 10:17:13;;;;;;;5.23;3.80;;;17.30;55.40;;;;;;5096349;28;20474;-65
2022/04/26 10:19:44;;;;;;;2.90;2.70;;;17.20;54.90;;;;;;5096144;28;20507;-64
2022/04/26 10:22:14;;;;;;;4.07;3.20;;;17.30;55.00;;;;;;5096487;28;20472;-64
2022/04/26 10:24:41;;;;;;;2.40;2.20;;;17.20;54.80;;;;;;5095928;28;20463;-65
2022/04/26 10:27:23;;;;;;;2.93;2.73;;;17.30;55.20;;;;;;5096340;28;20563;-64
2022/04/26 10:29:51;;;;;;;5.30;3.30;;;17.50;55.30;;;;;;5096182;28;20466;-64
2022/04/26 10:32:31;;;;;;;3.10;2.73;;;17.60;54.90;;;;;;5096022;28;20552;-65
2022/04/26 10:35:30;;;;;;;3.53;3.17;;;17.60;54.70;;;;;;5095788;28;20490;-65
2022/04/26 10:38:11;;;;;;;5.03;4.13;;;17.70;54.50;;;;;;5095686;27;20483;-65
2022/04/26 10:41:09;;;;;;;4.00;3.63;;;17.60;54.10;;;;;;5095719;28;20532;-65
2022/04/26 10:43:37;;;;;;;4.10;2.90;;;17.60;54.40;;;;;;5061242;28;20463;-64
2022/04/26 10:46:13;;;;;;;3.80;2.67;;;17.60;54.30;;;;;;5095727;28;20527;-64
2022/04/26 10:48:40;;;;;;;5.10;3.60;;;17.70;54.40;;;;;;5095466;28;20479;-65
2022/04/26 10:51:35;;;;;;;6.23;3.67;;;17.70;53.60;;;;;;5095931;28;20472;-64
2022/04/26 10:54:02;;;;;;;3.40;3.10;;;17.70;53.60;;;;;;5095482;28;20455;-65
2022/04/26 10:56:29;;;;;;;3.60;3.07;;;17.70;53.80;;;;;;5096054;28;20460;-65
2022/04/26 10:58:56;;;;;;;3.60;3.17;;;17.70;53.70;;;;;;5095145;28;20488;-64
2022/04/26 11:01:27;;;;;;;3.40;2.80;;;17.80;53.60;;;;;;5095546;28;20995;-65
2022/04/26 11:03:55;;;;;;;2.20;2.00;;;17.80;53.20;;;;;;5095460;28;20555;-65
2022/04/26 11:06:37;;;;;;;2.50;2.30;;;17.90;53.40;;;;;;5095436;28;20840;-64
2022/04/26 11:09:08;;;;;;;4.77;3.60;;;17.90;53.10;;;;;;5095142;28;20470;-64
2022/04/26 11:11:48;;;;;;;3.63;2.77;;;18.00;53.60;;;;;;5095373;28;20477;-64
2022/04/26 11:14:17;;;;;;;3.17;2.97;;;18.10;54.00;;;;;;5094248;28;20454;-64
2022/04/26 11:16:56;;;;;;;3.00;2.80;;;18.10;54.00;;;;;;5094966;28;20539;-63
2022/04/26 11:19:29;;;;;;;3.47;3.20;;;18.20;53.40;;;;;;5094831;28;20974;-63
2022/04/26 11:21:56;;;;;;;3.70;3.40;;;18.10;53.20;;;;;;5095239;28;20542;-64
2022/04/26 11:29:52;;;;;;;4.60;4.03;;;18.30;53.50;;;;;;5094941;28;20471;-64
2022/04/26 11:32:31;;;;;;;5.13;3.07;;;18.40;53.20;;;;;;5094927;28;20476;-63
2022/04/26 11:34:58;;;;;;;4.03;3.40;;;18.40;52.60;;;;;;5094574;28;20939;-62
2022/04/26 11:37:25;;;;;;;4.87;3.40;;;18.50;52.10;;;;;;5094959;28;20976;-65
2022/04/26 11:39:52;;;;;;;3.43;3.23;;;18.50;52.80;;;;;;5094524;28;20469;-63
2022/04/26 11:42:20;;;;;;;3.17;2.87;;;18.60;52.60;;;;;;5094816;28;20484;-65
2022/04/26 11:44:58;;;;;;;3.03;2.83;;;18.60;52.40;;;;;;5094309;28;20479;-64
2022/04/26 11:47:39;;;;;;;2.90;2.63;;;18.70;52.20;;;;;;5094870;28;20468;-63
2022/04/26 11:50:10;;;;;;;3.10;2.70;;;18.70;52.20;;;;;;5094506;28;20453;-63
2022/04/26 11:52:37;;;;;;;2.33;2.23;;;18.70;50.60;;;;;;5094753;28;20480;-64
2022/04/26 11:55:06;;;;;;;5.00;4.60;;;18.60;50.10;;;;;;5094079;28;20461;-65
2022/04/26 11:57:33;;;;;;;3.77;3.40;;;18.60;50.30;;;;;;5094694;28;20545;-65
2022/04/26 12:00:00;;;;;;;3.57;2.87;;;18.70;50.40;;;;;;5093834;28;21061;-64
2022/04/26 12:02:29;;;;;;;2.70;2.50;;;18.70;50.00;;;;;;5094286;28;20464;-65
2022/04/26 12:04:58;;;;;;;2.80;2.30;;;18.70;49.90;;;;;;5094056;28;20480;-64
2022/04/26 12:07:25;;;;;;;3.20;2.90;;;18.80;49.70;;;;;;5094233;28;20472;-64
2022/04/26 12:09:52;;;;;;;2.90;2.70;;;18.80;49.90;;;;;;5094118;28;20987;-64
2022/04/26 12:12:20;;;;;;;3.63;2.73;;;18.70;50.00;;;;;;5094273;28;20461;-64
2022/04/26 12:14:50;;;;;;;2.40;2.20;;;18.80;49.90;;;;;;5093804;28;20550;-64
2022/04/26 12:17:18;;;;;;;2.63;2.00;;;18.90;49.70;;;;;;5093867;28;20541;-64
2022/04/26 12:19:50;;;;;;;2.50;2.30;;;19.00;49.40;;;;;;5093843;28;20461;-64
2022/04/26 12:22:19;;;;;;;2.87;2.67;;;19.10;49.20;;;;;;5094016;28;20479;-65
2022/04/26 12:24:47;;;;;;;3.20;2.50;;;19.10;48.10;;;;;;5093475;28;20526;-64
2022/04/26 12:27:16;;;;;;;4.00;2.37;;;19.20;48.00;;;;;;5093791;28;20457;-64
2022/04/26 12:29:46;;;;;;;2.70;2.50;;;19.20;47.80;;;;;;5093925;28;20465;-64
2022/04/26 12:32:14;;;;;;;3.63;2.70;;;19.20;47.80;;;;;;5093443;28;20454;-64
2022/04/26 12:34:48;;;;;;;3.07;2.60;;;19.20;47.30;;;;;;5093608;28;20458;-64
2022/04/26 12:37:21;;;;;;;3.13;2.87;;;19.30;47.50;;;;;;5093831;28;20502;-64
2022/04/26 12:39:49;;;;;;;2.20;2.00;;;19.20;47.00;;;;;;5093751;28;20465;-64
2022/04/26 12:42:18;;;;;;;3.00;2.80;;;19.30;46.90;;;;;;5093477;28;20460;-64
2022/04/26 12:44:52;;;;;;;3.43;3.20;;;19.20;46.00;;;;;;5093650;28;20453;-65
2022/04/26 12:52:53;;;;;;;3.60;3.30;;;19.00;46.70;;;;;;5093523;28;20460;-64
2022/04/26 12:55:29;;;;;;;3.00;2.80;;;19.00;47.00;;;;;;5093411;28;20824;-65
2022/04/26 12:57:57;;;;;;;3.07;2.87;;;19.00;47.10;;;;;;5093086;28;20487;-64
2022/04/26 13:00:25;;;;;;;3.57;2.97;;;19.00;47.10;;;;;;5093382;28;20472;-65
2022/04/26 13:02:53;;;;;;;2.83;2.57;;;18.90;46.50;;;;;;5093236;28;21123;-64
2022/04/26 13:05:21;;;;;;;3.10;2.70;;;18.80;46.40;;;;;;5092945;28;20460;-65
2022/04/26 13:07:49;;;;;;;3.10;2.23;;;18.80;46.70;;;;;;5093335;28;20545;-64
2022/04/26 13:10:18;;;;;;;2.60;2.40;;;18.80;47.20;;;;;;5092900;28;21822;-65
2022/04/26 13:12:46;;;;;;;3.37;2.87;;;18.70;47.50;;;;;;5093235;28;20815;-64
2022/04/26 13:15:15;;;;;;;2.77;2.50;;;18.70;47.40;;;;;;5092708;28;20963;-64
2022/04/26 13:17:43;;;;;;;4.50;2.73;;;18.70;47.50;;;;;;5093120;28;20503;-64
2022/04/26 13:20:11;;;;;;;5.13;4.63;;;18.70;47.30;;;;;;5092686;28;20475;-65
2022/04/26 13:22:39;;;;;;;2.53;2.33;;;18.70;48.00;;;;;;5093009;28;20955;-64
2022/04/26 13:25:07;;;;;;;3.80;2.80;;;18.70;47.40;;;;;;5092438;28;20473;-64
2022/04/26 13:27:37;;;;;;;3.57;3.10;;;18.80;47.30;;;;;;5093274;28;20527;-64
2022/04/26 13:30:05;;;;;;;3.33;3.03;;;18.80;47.30;;;;;;5092738;28;20465;-64
2022/04/26 13:32:32;;;;;;;2.70;2.50;;;18.80;46.80;;;;;;5089755;28;20828;-64
2022/04/26 13:34:59;;;;;;;4.33;3.93;;;18.80;46.70;;;;;;5082385;28;20469;-64
2022/04/26 13:37:26;;;;;;;3.60;3.30;;;18.80;47.60;;;;;;5091422;28;20465;-63
2022/04/26 13:39:54;;;;;;;2.47;2.27;;;18.80;46.50;;;;;;5092754;28;20465;-63
2022/04/26 13:42:23;;;;;;;3.00;2.77;;;18.80;46.30;;;;;;5087003;28;20453;-63
2022/04/26 13:44:52;;;;;;;4.20;3.13;;;18.80;46.50;;;;;;5092771;28;20967;-64
2022/04/26 13:47:19;;;;;;;3.10;2.70;;;18.80;46.60;;;;;;5091845;28;20555;-64
2022/04/26 13:49:46;;;;;;;2.90;2.67;;;18.90;47.30;;;;;;5089631;28;20827;-64
2022/04/26 13:52:13;;;;;;;2.63;2.43;;;18.90;46.40;;;;;;5087559;28;20491;-64
2022/04/26 13:54:42;;;;;;;3.13;2.43;;;19.00;46.50;;;;;;5091908;28;20555;-64
2022/04/26 13:57:09;;;;;;;5.13;2.40;;;19.10;46.30;;;;;;5092280;28;20489;-64
2022/04/26 13:59:36;;;;;;;2.03;1.83;;;19.10;45.70;;;;;;5092348;28;20469;-64
2022/04/26 14:02:06;;;;;;;2.23;1.80;;;19.20;45.40;;;;;;5092023;28;20515;-64
2022/04/26 14:04:33;;;;;;;2.40;2.20;;;19.20;44.80;;;;;;5092559;28;20465;-63
2022/04/26 14:07:01;;;;;;;3.83;2.87;;;19.10;44.30;;;;;;5091761;28;20465;-63
2022/04/26 14:09:28;;;;;;;2.90;2.67;;;19.10;44.40;;;;;;5092305;28;20483;-64
2022/04/26 14:11:56;;;;;;;2.53;2.30;;;19.10;44.10;;;;;;5092543;28;20992;-63
2022/04/26 14:22:36;;;;;;;2.60;2.23;;;19.30;44.00;;;;;;5092597;28;20970;-63
2022/04/26 14:25:05;;;;;;;2.93;2.00;;;19.20;43.60;;;;;;5091744;28;20457;-63
2022/04/26 14:27:32;;;;;;;1.87;1.70;;;19.20;43.70;;;;;;5083396;28;20480;-63
2022/04/26 14:30:00;;;;;;;2.80;2.60;;;19.20;43.50;;;;;;5091576;28;20808;-63
2022/04/26 14:32:28;;;;;;;2.80;1.90;;;19.20;43.50;;;;;;5082474;28;20466;-63
2022/04/26 14:34:54;;;;;;;2.37;2.00;;;19.20;43.60;;;;;;5089659;28;20466;-63
2022/04/26 14:37:22;;;;;;;3.83;1.80;;;19.20;43.70;;;;;;5092086;28;20469;-63
2022/04/26 14:39:49;;;;;;;2.17;1.97;;;19.10;43.50;;;;;;5091929;28;20550;-63
2022/04/26 14:42:17;;;;;;;1.83;1.73;;;19.20;43.80;;;;;;5092174;28;20492;-63
2022/04/26 14:44:44;;;;;;;3.73;3.10;;;19.20;43.80;;;;;;5091688;28;20525;-64
2022/04/26 14:47:12;;;;;;;2.40;2.20;;;19.30;44.00;;;;;;5091969;28;20472;-63
2022/04/26 14:49:40;;;;;;;6.07;3.10;;;19.30;43.80;;;;;;5094664;28;20563;-64
2022/04/26 14:52:08;;;;;;;4.10;2.67;;;19.30;43.80;;;;;;5094984;28;20476;-63
2022/04/26 14:54:35;;;;;;;2.50;2.40;;;19.40;44.00;;;;;;5095872;28;20469;-64
2022/04/26 14:57:04;;;;;;;2.60;2.37;;;19.30;44.10;;;;;;5095164;28;20473;-63
2022/04/26 14:59:31;;;;;;;2.10;2.00;;;19.30;44.30;;;;;;5095372;28;20466;-64
2022/04/26 15:01:57;;;;;;;2.63;2.03;;;19.30;44.30;;;;;;5095087;28;20476;-64
2022/04/26 15:04:25;;;;;;;2.60;2.40;;;19.30;44.40;;;;;;5095426;28;20469;-64
2022/04/26 15:06:54;;;;;;;2.37;2.23;;;19.30;44.50;;;;;;5081373;28;20473;-64
2022/04/26 15:17:40;;;;;;;2.50;1.60;;;19.20;44.60;;;;;;5095118;28;20469;-64
2022/04/26 15:20:08;;;;;;;3.53;2.90;;;19.20;44.50;;;;;;5094564;28;20483;-64
2022/04/26 15:22:37;;;;;;;2.17;2.00;;;19.10;44.20;;;;;;5095036;28;20469;-64
2022/04/26 15:25:06;;;;;;;3.70;2.37;;;19.10;44.60;;;;;;5094812;28;20469;-64
2022/04/26 15:27:34;;;;;;;2.63;2.07;;;19.10;44.80;;;;;;5094850;28;20475;-65
2022/04/26 15:30:01;;;;;;;2.93;2.73;;;19.00;44.90;;;;;;5094495;28;20469;-64
2022/04/26 15:32:28;;;;;;;3.50;2.50;;;19.10;45.50;;;;;;5082022;28;20471;-64
2022/04/26 15:34:55;;;;;;;2.43;2.23;;;19.20;45.20;;;;;;5094362;28;20469;-64
2022/04/26 15:37:24;;;;;;;3.00;2.70;;;19.20;45.30;;;;;;5094302;28;20513;-64
2022/04/26 15:39:53;;;;;;;4.00;3.00;;;19.20;45.40;;;;;;5088386;28;20513;-64
2022/04/26 15:42:21;;;;;;;2.53;2.33;;;19.20;45.30;;;;;;5093828;28;20964;-64
2022/04/26 15:44:48;;;;;;;3.27;2.97;;;19.20;45.30;;;;;;5092902;28;20471;-64
2022/04/26 15:47:16;;;;;;;2.73;2.53;;;19.20;45.40;;;;;;5092333;28;20500;-64
2022/04/26 15:49:43;;;;;;;3.10;2.57;;;19.20;45.60;;;;;;5093970;28;20470;-64
2022/04/26 15:52:10;;;;;;;2.40;2.30;;;19.20;45.60;;;;;;5092567;28;20465;-63
2022/04/26 15:54:37;;;;;;;3.20;2.60;;;19.20;45.90;;;;;;5094428;28;20962;-64
2022/04/26 15:57:05;;;;;;;2.83;2.63;;;19.20;45.80;;;;;;5093770;28;20477;-64
2022/04/26 15:59:32;;;;;;;2.93;2.60;;;19.20;45.80;;;;;;5093909;28;20469;-64
2022/04/26 16:01:59;;;;;;;2.90;2.70;;;19.20;45.70;;;;;;5091708;28;20472;-64
2022/04/26 16:04:26;;;;;;;3.10;2.80;;;19.20;45.80;;;;;;5094004;28;20461;-64
2022/04/26 16:06:53;;;;;;;3.27;2.70;;;19.10;45.70;;;;;;5093539;28;20465;-64
2022/04/26 16:20:30;;;;;;;2.50;2.00;;;19.00;45.60;;;;;;5086719;28;20924;-63
2022/04/26 16:22:58;;;;;;;3.07;2.80;;;19.00;45.30;;;;;;5080732;28;20468;-64
2022/04/26 16:25:24;;;;;;;2.77;2.57;;;19.00;45.60;;;;;;5087856;28;20524;-63
2022/04/26 16:27:53;;;;;;;3.50;3.13;;;18.90;45.60;;;;;;5093065;28;20465;-64
2022/04/26 16:30:22;;;;;;;2.77;2.57;;;18.90;45.90;;;;;;5093209;28;20481;-65
2022/04/26 16:32:49;;;;;;;2.60;2.40;;;19.00;46.40;;;;;;5089095;28;20894;-65
2022/04/26 16:35:22;;;;;;;3.07;2.87;;;18.90;46.50;;;;;;5092001;28;20479;-64
2022/04/26 16:37:49;;;;;;;3.00;2.70;;;18.90;46.70;;;;;;5093280;28;20958;-64
2022/04/26 16:40:16;;;;;;;7.43;3.50;;;18.90;46.40;;;;;;5093317;28;20515;-65
2022/04/26 16:42:43;;;;;;;3.13;2.63;;;18.90;46.70;;;;;;5083809;28;20482;-64
2022/04/26 16:45:13;;;;;;;4.53;3.00;;;18.90;46.80;;;;;;5093371;28;20468;-64
2022/04/26 16:47:40;;;;;;;3.03;2.83;;;19.00;46.50;;;;;;5092562;28;20467;-64
2022/04/26 16:50:07;;;;;;;2.83;2.13;;;18.90;46.60;;;;;;5093026;28;20464;-64
2022/04/26 16:52:35;;;;;;;4.10;3.70;;;18.90;46.50;;;;;;5092670;28;20535;-65
2022/04/26 16:55:02;;;;;;;3.53;3.23;;;18.80;46.40;;;;;;5093108;28;20460;-63
2022/04/26 16:57:32;;;;;;;4.73;4.00;;;18.80;47.00;;;;;;5093351;28;20458;-64
2022/04/26 16:59:59;;;;;;;4.53;3.40;;;18.80;47.10;;;;;;5079433;28;20472;-64
2022/04/26 17:02:28;;;;;;;4.13;3.80;;;18.80;47.40;;;;;;5092806;28;20481;-64
2022/04/26 17:04:55;;;;;;;2.80;2.60;;;18.70;47.60;;;;;;5092959;28;20461;-64
2022/04/26 17:07:22;;;;;;;3.17;2.70;;;18.70;47.10;;;;;;5092963;28;20474;-64
2022/04/26 17:09:49;;;;;;;3.87;2.43;;;18.70;46.60;;;;;;5092284;28;20481;-64
2022/04/26 17:12:16;;;;;;;2.53;2.33;;;18.70;46.30;;;;;;5093028;28;20468;-64
2022/04/26 17:14:43;;;;;;;2.90;2.70;;;18.70;46.70;;;;;;5092564;28;20966;-64